Time;durP1;ratioP1;P1;durP2;ratioP2;P2;SDS_P1;SDS_P2;PMS_P1;PMS_P2;Temp;Humidity;BMP_temperature;BMP_pressure;BME280_temperature;BME280_humidity;BME280_pressure;Samples;Min_cycle;Max_cycle;Signal;HPM_P1;HPM_P2
2023/08/20 00:01:37;;;;;;;;;;;;;;;29.99;39.40;97131.84;4200646;28;5989;-67
2023/08/20 00:03:41;;;;;;;;;;;;;;;29.99;39.30;97135.38;4200601;28;5783;-67
2023/08/20 00:05:44;;;;;;;;;;;;;;;29.98;39.46;97139.22;4200758;28;5787;-67
2023/08/20 00:07:46;;;;;;;;;;;;;;;29.97;39.50;97134.88;4199201;28;5694;-67
2023/08/20 00:09:49;;;;;;;;;;;;;;;29.97;39.68;97140.34;4200830;28;5686;-67
2023/08/20 00:11:52;;;;;;;;;;;;;;;29.98;39.85;97139.22;4200542;28;5290;-68
2023/08/20 00:13:56;;;;;;;;;;;;;;;29.96;40.07;97138.72;4200464;28;5689;-67
2023/08/20 00:15:59;;;;;;;;;;;;;;;29.95;40.26;97139.03;4198448;28;5697;-68
2023/08/20 00:18:03;;;;;;;;;;;;;;;29.94;40.40;97140.97;4198977;28;5693;-66
2023/08/20 00:20:10;;;;;;;;;;;;;;;29.93;40.38;97141.28;4200303;28;5747;-67
2023/08/20 00:22:12;;;;;;;;;;;;;;;29.92;40.66;97147.84;4200108;28;5713;-68
2023/08/20 00:24:16;;;;;;;;;;;;;;;29.90;40.67;97145.44;4199894;28;5825;-67
2023/08/20 00:26:19;;;;;;;;;;;;;;;29.90;40.91;97145.44;4185046;28;5739;-67
2023/08/20 00:28:21;;;;;;;;;;;;;;;29.88;41.05;97149.56;4200215;28;5839;-67
2023/08/20 00:30:25;;;;;;;;;;;;;;;29.89;41.05;97153.91;4200154;28;5689;-68
2023/08/20 00:32:28;;;;;;;;;;;;;;;29.85;40.97;97148.28;4200188;28;5677;-67
2023/08/20 00:34:31;;;;;;;;;;;;;;;29.83;41.01;97145.06;4194923;28;5865;-67
2023/08/20 00:36:34;;;;;;;;;;;;;;;29.83;41.37;97150.50;4195406;28;5773;-67
2023/08/20 00:38:37;;;;;;;;;;;;;;;29.82;41.53;97148.91;4199168;28;5835;-67
2023/08/20 00:40:40;;;;;;;;;;;;;;;29.81;41.22;97141.84;4195684;28;5832;-66
2023/08/20 00:42:43;;;;;;;;;;;;;;;29.79;41.27;97147.59;4199076;28;5838;-67
2023/08/20 00:44:46;;;;;;;;;;;;;;;29.78;41.46;97150.59;4198894;28;5836;-66
2023/08/20 00:46:51;;;;;;;;;;;;;;;29.77;41.47;97146.28;4200252;28;5777;-67
2023/08/20 00:48:54;;;;;;;;;;;;;;;29.76;41.43;97155.56;4200441;28;5686;-68
2023/08/20 00:50:57;;;;;;;;;;;;;;;29.74;41.42;97155.88;4198343;28;5763;-67
2023/08/20 00:53:00;;;;;;;;;;;;;;;29.75;41.28;97148.50;4199832;28;5686;-67
2023/08/20 00:55:08;;;;;;;;;;;;;;;29.74;41.50;97160.53;4200010;28;5689;-68
2023/08/20 00:57:12;;;;;;;;;;;;;;;29.74;41.61;97160.53;4194384;28;5764;-68
2023/08/20 00:59:15;;;;;;;;;;;;;;;29.73;41.43;97161.63;4201914;28;5694;-68
2023/08/20 01:01:18;;;;;;;;;;;;;;;29.72;41.57;97160.03;4202868;28;5831;-68
2023/08/20 01:03:23;;;;;;;;;;;;;;;29.69;41.62;97153.28;4203338;28;5700;-68
2023/08/20 01:05:26;;;;;;;;;;;;;;;29.69;41.42;97161.47;4200364;28;5672;-68
2023/08/20 01:07:36;;;;;;;;;;;;;;;29.69;41.38;97160.66;4203158;28;5920;-68
2023/08/20 01:09:48;;;;;;;;;;;;;;;29.67;41.41;97162.84;4200665;28;5693;-68
2023/08/20 01:11:58;;;;;;;;;;;;;;;29.66;41.48;97167.50;4197120;28;5711;-68
2023/08/20 01:14:02;;;;;;;;;;;;;;;29.65;41.48;97170.53;4202148;28;5726;-67
2023/08/20 01:16:05;;;;;;;;;;;;;;;29.64;41.51;97163.47;4202419;28;5808;-67
2023/08/20 01:18:08;;;;;;;;;;;;;;;29.62;41.54;97168.44;4201419;28;5702;-67
2023/08/20 01:20:15;;;;;;;;;;;;;;;29.62;41.42;97165.72;4199249;28;5700;-67
2023/08/20 01:22:52;;;;;;;;;;;;;;;29.59;40.93;97164.41;4202885;28;5161;-66
2023/08/20 01:25:05;;;;;;;;;;;;;;;29.60;41.06;97165.22;4197034;28;5690;-67
2023/08/20 01:27:20;;;;;;;;;;;;;;;29.58;41.07;97164.72;4199580;28;5708;-67
2023/08/20 01:29:26;;;;;;;;;;;;;;;29.57;40.97;97166.63;4201545;28;5689;-67
2023/08/20 01:31:29;;;;;;;;;;;;;;;29.57;40.98;97172.09;4203210;28;7235;-66
2023/08/20 01:33:32;;;;;;;;;;;;;;;29.56;41.00;97174.00;4202978;28;5749;-67
2023/08/20 01:35:36;;;;;;;;;;;;;;;29.56;41.01;97165.84;4202829;28;5780;-67
2023/08/20 01:37:39;;;;;;;;;;;;;;;29.58;41.05;97167.44;4202704;28;5701;-67
2023/08/20 01:39:42;;;;;;;;;;;;;;;29.57;41.13;97174.81;4202058;28;6641;-67
2023/08/20 01:41:45;;;;;;;;;;;;;;;29.55;40.98;97177.81;4201675;28;5702;-68
2023/08/20 01:43:47;;;;;;;;;;;;;;;29.56;41.18;97170.44;4202931;28;5709;-67
2023/08/20 01:45:52;;;;;;;;;;;;;;;29.56;41.46;97174.00;4202414;28;7057;-67
2023/08/20 01:47:54;;;;;;;;;;;;;;;29.58;41.54;97175.63;4203036;28;5778;-68
2023/08/20 01:49:58;;;;;;;;;;;;;;;29.56;41.64;97178.63;4202886;28;5824;-67
2023/08/20 01:52:01;;;;;;;;;;;;;;;29.55;41.91;97177.00;4202732;28;6835;-68
2023/08/20 01:54:04;;;;;;;;;;;;;;;29.52;42.16;97183.88;4202675;28;5705;-67
2023/08/20 01:56:12;;;;;;;;;;;;;;;29.52;42.42;97181.16;4202532;28;5701;-68
2023/08/20 01:58:15;;;;;;;;;;;;;;;29.50;42.54;97175.22;4194604;28;5700;-68
2023/08/20 02:00:18;;;;;;;;;;;;;;;29.50;42.70;97174.41;4202332;28;5807;-67
2023/08/20 02:02:22;;;;;;;;;;;;;;;29.48;42.88;97174.72;4200546;28;5731;-68
2023/08/20 02:04:25;;;;;;;;;;;;;;;29.47;42.91;97180.44;4197723;28;5829;-68
2023/08/20 02:06:28;;;;;;;;;;;;;;;29.45;43.02;97183.47;4193393;28;5854;-68
2023/08/20 02:08:30;;;;;;;;;;;;;;;29.45;43.06;97188.13;4197194;28;5412;-68
2023/08/20 02:10:33;;;;;;;;;;;;;;;29.43;43.24;97185.69;4202418;28;5820;-66
2023/08/20 02:12:36;;;;;;;;;;;;;;;29.42;43.24;97186.78;4202251;28;5694;-67
2023/08/20 02:14:39;;;;;;;;;;;;;;;29.40;43.16;97189.03;4202304;28;5717;-67
2023/08/20 02:16:41;;;;;;;;;;;;;;;29.40;43.39;97201.81;4200528;28;5996;-67
2023/08/20 02:18:46;;;;;;;;;;;;;;;29.39;43.61;97195.56;4200521;28;5883;-67
2023/08/20 02:20:49;;;;;;;;;;;;;;;29.39;43.59;97190.13;4202525;28;5693;-67
2023/08/20 02:22:52;;;;;;;;;;;;;;;29.39;43.66;97192.06;4202174;28;5684;-68
2023/08/20 02:24:54;;;;;;;;;;;;;;;29.37;43.65;97192.34;4202317;28;5713;-67
2023/08/20 02:26:57;;;;;;;;;;;;;;;29.36;43.72;97193.47;4201944;28;5828;-67
2023/08/20 02:29:00;;;;;;;;;;;;;;;29.36;43.78;97196.19;4202292;28;5702;-67
2023/08/20 02:31:05;;;;;;;;;;;;;;;29.35;43.97;97196.50;4202064;28;7306;-67
2023/08/20 02:33:08;;;;;;;;;;;;;;;29.33;44.22;97194.06;4199785;28;5648;-67
2023/08/20 02:35:15;;;;;;;;;;;;;;;29.33;44.13;97196.78;4198548;28;5709;-67
2023/08/20 02:37:18;;;;;;;;;;;;;;;29.31;44.13;97200.94;4199883;28;5698;-67
2023/08/20 02:39:21;;;;;;;;;;;;;;;29.29;44.18;97201.22;4199922;28;5705;-67
2023/08/20 02:41:24;;;;;;;;;;;;;;;29.28;44.08;97202.34;4200239;28;5761;-67
2023/08/20 02:43:27;;;;;;;;;;;;;;;29.24;44.07;97210.31;4201659;28;5806;-67
2023/08/20 02:45:29;;;;;;;;;;;;;;;29.26;44.10;97204.56;4195601;28;5904;-67
2023/08/20 02:47:32;;;;;;;;;;;;;;;29.25;43.86;97211.94;4207722;28;5684;-67
2023/08/20 02:49:35;;;;;;;;;;;;;;;29.24;44.14;97204.88;4195355;28;5697;-68
2023/08/20 02:51:41;;;;;;;;;;;;;;;29.23;43.96;97202.47;4201910;28;6504;-67
2023/08/20 02:53:44;;;;;;;;;;;;;;;29.21;44.09;97208.19;4201398;28;5685;-68
2023/08/20 02:55:47;;;;;;;;;;;;;;;29.20;44.10;97203.03;4195075;28;5933;-67
2023/08/20 02:57:50;;;;;;;;;;;;;;;29.18;44.00;97205.28;4198159;28;5858;-68
2023/08/20 02:59:52;;;;;;;;;;;;;;;29.18;43.85;97208.00;4201531;28;5689;-68
2023/08/20 03:01:55;;;;;;;;;;;;;;;29.17;43.93;97199.03;4201610;28;5689;-68
2023/08/20 03:03:58;;;;;;;;;;;;;;;29.16;43.87;97202.06;4201475;28;5693;-68
2023/08/20 03:06:02;;;;;;;;;;;;;;;29.15;43.95;97200.44;4199283;28;5808;-68
2023/08/20 03:08:07;;;;;;;;;;;;;;;29.15;43.79;97205.88;4199220;28;5788;-68
2023/08/20 03:10:10;;;;;;;;;;;;;;;29.14;43.94;97204.28;4198718;28;5849;-68
2023/08/20 03:12:13;;;;;;;;;;;;;;;29.12;43.79;97201.84;4199625;28;5673;-67
2023/08/20 03:14:16;;;;;;;;;;;;;;;29.13;43.79;97208.09;4199329;28;5730;-67
2023/08/20 03:16:18;;;;;;;;;;;;;;;29.13;43.83;97213.56;4195734;28;6298;-67
2023/08/20 03:18:21;;;;;;;;;;;;;;;29.11;44.03;97207.59;4198561;28;5689;-67
2023/08/20 03:20:24;;;;;;;;;;;;;;;29.10;43.57;97211.41;4196381;28;5671;-67
2023/08/20 03:22:28;;;;;;;;;;;;;;;29.08;43.49;97211.72;4200623;28;5797;-67
2023/08/20 03:24:32;;;;;;;;;;;;;;;29.07;43.42;97206.59;4198273;28;5929;-68
2023/08/20 03:26:35;;;;;;;;;;;;;;;29.06;43.31;97207.69;4197511;28;5799;-67
2023/08/20 03:28:38;;;;;;;;;;;;;;;29.05;43.16;97206.09;4198038;28;7694;-68
2023/08/20 03:30:41;;;;;;;;;;;;;;;29.06;43.18;97207.69;4201128;28;6553;-67
2023/08/20 03:32:44;;;;;;;;;;;;;;;29.06;43.09;97202.25;4194858;28;5728;-66
2023/08/20 03:34:47;;;;;;;;;;;;;;;29.07;42.96;97220.19;4197102;28;5684;-68
2023/08/20 03:36:50;;;;;;;;;;;;;;;29.06;42.76;97213.13;4199609;28;5683;-67
2023/08/20 03:38:52;;;;;;;;;;;;;;;29.05;42.62;97206.88;4200653;28;5686;-68
2023/08/20 03:40:57;;;;;;;;;;;;;;;29.05;42.64;97206.88;4201045;28;5677;-65
2023/08/20 03:43:00;;;;;;;;;;;;;;;29.05;42.73;97200.63;4200052;28;5704;-66
2023/08/20 03:45:03;;;;;;;;;;;;;;;29.05;42.46;97200.63;4200742;28;5894;-67
2023/08/20 03:47:05;;;;;;;;;;;;;;;29.05;42.29;97212.34;4198210;28;5710;-67
2023/08/20 03:49:11;;;;;;;;;;;;;;;29.04;42.18;97201.75;4200898;28;6408;-67
2023/08/20 03:51:14;;;;;;;;;;;;;;;29.05;42.50;97203.34;4201227;28;6492;-67
2023/08/20 03:53:16;;;;;;;;;;;;;;;29.05;42.06;97211.53;4200510;28;5686;-68
2023/08/20 03:55:19;;;;;;;;;;;;;;;29.04;42.00;97216.16;4200864;28;5822;-67
2023/08/20 03:57:23;;;;;;;;;;;;;;;29.04;41.96;97210.72;4200503;28;5690;-67
2023/08/20 03:59:26;;;;;;;;;;;;;;;29.04;41.94;97215.34;4200724;28;5685;-67
2023/08/20 04:01:29;;;;;;;;;;;;;;;29.04;41.87;97220.81;4199544;28;5639;-67
2023/08/20 04:03:32;;;;;;;;;;;;;;;29.04;41.87;97220.81;4200583;28;5713;-67
2023/08/20 04:05:37;;;;;;;;;;;;;;;29.03;41.95;97221.91;4200807;28;5959;-68
2023/08/20 04:07:39;;;;;;;;;;;;;;;29.03;41.86;97220.00;4200725;28;5711;-67
2023/08/20 04:09:43;;;;;;;;;;;;;;;29.03;41.81;97224.63;4200569;28;5681;-67
2023/08/20 04:11:46;;;;;;;;;;;;;;;29.02;41.86;97221.09;4200439;28;5792;-67
2023/08/20 04:14:10;;;;;;;;;;;;;;;29.01;41.86;97226.84;4200321;28;6380;-67
2023/08/20 04:16:33;;;;;;;;;;;;;;;28.99;41.86;97229.84;4194627;28;5689;-68
2023/08/20 04:18:56;;;;;;;;;;;;;;;28.96;41.95;97225.81;4199873;28;5792;-68
2023/08/20 04:20:59;;;;;;;;;;;;;;;28.94;42.00;97228.03;4200603;28;5709;-68
2023/08/20 04:23:02;;;;;;;;;;;;;;;28.93;42.12;97228.34;4200143;28;5673;-68
2023/08/20 04:25:06;;;;;;;;;;;;;;;28.91;41.99;97234.09;4200276;28;5710;-68
2023/08/20 04:27:09;;;;;;;;;;;;;;;28.91;42.19;97234.09;4200365;28;5839;-68
2023/08/20 04:29:13;;;;;;;;;;;;;;;28.90;42.12;97235.22;4192225;28;5696;-68
2023/08/20 04:31:16;;;;;;;;;;;;;;;28.89;42.26;97236.31;4199919;28;6346;-66
2023/08/20 04:33:19;;;;;;;;;;;;;;;28.89;42.28;97235.50;4195154;28;5760;-66
2023/08/20 04:35:22;;;;;;;;;;;;;;;28.88;42.44;97237.44;4200133;28;5493;-67
2023/08/20 04:37:25;;;;;;;;;;;;;;;28.87;42.54;97238.47;4200187;28;5785;-66
2023/08/20 04:39:27;;;;;;;;;;;;;;;28.87;42.52;97254.81;4199703;28;5769;-67
2023/08/20 04:41:30;;;;;;;;;;;;;;;28.88;42.80;97251.03;4199936;28;5701;-67
2023/08/20 04:43:33;;;;;;;;;;;;;;;28.86;42.70;97245.03;4197005;28;5682;-67
2023/08/20 04:45:37;;;;;;;;;;;;;;;28.87;42.87;97254.81;4194461;28;5098;-67
2023/08/20 04:47:40;;;;;;;;;;;;;;;28.87;42.94;97246.63;4196674;28;5790;-67
2023/08/20 04:49:43;;;;;;;;;;;;;;;28.86;43.08;97253.19;4200450;28;5694;-67
2023/08/20 04:51:46;;;;;;;;;;;;;;;28.84;43.08;97243.72;4200397;28;5723;-66
2023/08/20 04:53:49;;;;;;;;;;;;;;;28.83;43.14;97248.34;4198785;28;8047;-67
2023/08/20 04:55:52;;;;;;;;;;;;;;;28.82;43.35;97245.94;4199513;28;5859;-67
2023/08/20 04:57:55;;;;;;;;;;;;;;;28.81;43.69;97247.84;4198148;28;5806;-67
2023/08/20 04:59:58;;;;;;;;;;;;;;;28.82;43.57;97248.66;4200032;28;5769;-67
2023/08/20 05:02:02;;;;;;;;;;;;;;;28.81;43.79;97255.22;4193307;28;5695;-67
2023/08/20 05:04:05;;;;;;;;;;;;;;;28.82;43.76;97251.38;4200072;28;5694;-67
2023/08/20 05:06:08;;;;;;;;;;;;;;;28.81;43.85;97253.31;4200303;28;5690;-66
2023/08/20 05:08:11;;;;;;;;;;;;;;;28.82;43.99;97257.63;4192106;28;5690;-66
2023/08/20 05:10:14;;;;;;;;;;;;;;;28.82;44.32;97251.38;4200248;28;5796;-66
2023/08/20 05:12:17;;;;;;;;;;;;;;;28.83;44.34;97253.81;4199194;28;5689;-67
2023/08/20 05:14:20;;;;;;;;;;;;;;;28.83;44.39;97259.25;4199746;28;5689;-67
2023/08/20 05:16:23;;;;;;;;;;;;;;;28.85;44.47;97257.03;4191363;28;6507;-67
2023/08/20 05:18:27;;;;;;;;;;;;;;;28.87;44.81;97264.88;4199973;28;5692;-66
2023/08/20 05:20:29;;;;;;;;;;;;;;;28.84;44.98;97263.56;4200167;28;5765;-67
2023/08/20 05:22:32;;;;;;;;;;;;;;;28.84;45.14;97260.06;4197673;28;5796;-67
2023/08/20 05:24:36;;;;;;;;;;;;;;;28.84;45.43;97260.06;4197726;28;5074;-67
2023/08/20 05:26:38;;;;;;;;;;;;;;;28.83;45.39;97256.53;4193956;28;6424;-67
2023/08/20 05:28:41;;;;;;;;;;;;;;;28.84;45.46;97260.84;4196141;28;5769;-67
2023/08/20 05:30:44;;;;;;;;;;;;;;;28.84;45.51;97262.78;4195465;28;5706;-67
2023/08/20 05:32:47;;;;;;;;;;;;;;;28.85;45.55;97267.09;4196663;28;5741;-67
2023/08/20 05:34:51;;;;;;;;;;;;;;;28.86;45.66;97258.63;4200253;28;5764;-67
2023/08/20 05:36:54;;;;;;;;;;;;;;;28.87;45.71;97260.25;4200245;28;5776;-67
2023/08/20 05:38:57;;;;;;;;;;;;;;;28.88;45.77;97266.53;4200078;28;5915;-67
2023/08/20 05:41:00;;;;;;;;;;;;;;;28.88;45.84;97272.81;4199935;28;5685;-67
2023/08/20 05:43:03;;;;;;;;;;;;;;;28.88;45.94;97278.25;4198925;28;5762;-67
2023/08/20 05:45:06;;;;;;;;;;;;;;;28.89;45.94;97270.88;4202748;28;5679;-68
2023/08/20 05:47:09;;;;;;;;;;;;;;;28.89;46.14;97268.97;4186922;28;5738;-68
2023/08/20 05:49:13;;;;;;;;;;;;;;;28.89;46.07;97266.25;4194954;28;6407;-68
2023/08/20 05:51:17;;;;;;;;;;;;;;;28.90;46.13;97273.31;4201647;28;6356;-68
2023/08/20 05:53:20;;;;;;;;;;;;;;;28.91;46.23;97285.81;4193247;28;5764;-68
2023/08/20 05:55:23;;;;;;;;;;;;;;;28.91;46.36;97280.38;4201877;28;5707;-67
2023/08/20 05:57:26;;;;;;;;;;;;;;;28.92;46.29;97284.69;4194214;28;7710;-67
2023/08/20 05:59:28;;;;;;;;;;;;;;;28.93;46.61;97283.59;4201913;28;5768;-67
2023/08/20 06:01:32;;;;;;;;;;;;;;;28.93;46.50;97280.88;4195253;28;5749;-67
2023/08/20 06:03:35;;;;;;;;;;;;;;;28.94;46.53;97277.03;4199512;28;5631;-67
2023/08/20 06:05:38;;;;;;;;;;;;;;;28.96;46.61;97268.56;4202735;28;5801;-67
2023/08/20 06:07:41;;;;;;;;;;;;;;;28.98;46.46;97280.75;4201266;28;5723;-68
2023/08/20 06:09:44;;;;;;;;;;;;;;;29.01;46.65;97282.09;4202548;28;5745;-67
2023/08/20 06:11:49;;;;;;;;;;;;;;;29.04;46.63;97289.66;4202522;28;5729;-67
2023/08/20 06:13:52;;;;;;;;;;;;;;;29.07;46.54;97282.78;4197881;28;5831;-66
2023/08/20 06:15:55;;;;;;;;;;;;;;;29.11;46.64;97292.81;4197796;28;5679;-67
2023/08/20 06:17:58;;;;;;;;;;;;;;;29.14;46.51;97296.84;4197858;28;5709;-68
2023/08/20 06:20:01;;;;;;;;;;;;;;;29.15;46.54;97291.09;4196695;28;5689;-67
2023/08/20 06:22:04;;;;;;;;;;;;;;;29.16;46.51;97294.59;4194985;28;7153;-68
2023/08/20 06:24:09;;;;;;;;;;;;;;;29.18;46.59;97297.84;4199211;28;5840;-67
2023/08/20 06:26:11;;;;;;;;;;;;;;;29.21;46.59;97305.41;4193131;28;5903;-68
2023/08/20 06:28:14;;;;;;;;;;;;;;;29.23;46.64;97297.75;4196109;28;5895;-68
2023/08/20 06:30:17;;;;;;;;;;;;;;;29.25;46.51;97300.97;4194753;28;5788;-67
2023/08/20 06:32:20;;;;;;;;;;;;;;;29.26;46.43;97303.41;4194011;28;5690;-68
2023/08/20 06:34:23;;;;;;;;;;;;;;;29.27;46.40;97298.75;4189689;28;5829;-68
2023/08/20 06:36:25;;;;;;;;;;;;;;;29.29;46.46;97304.69;4189815;28;5801;-67
2023/08/20 06:38:28;;;;;;;;;;;;;;;29.27;46.37;97302.28;4195939;28;5800;-68
2023/08/20 06:40:33;;;;;;;;;;;;;;;29.29;46.53;97304.69;4198647;28;5682;-67
2023/08/20 06:42:36;;;;;;;;;;;;;;;29.29;46.59;97305.50;4194794;28;5638;-68
2023/08/20 06:44:42;;;;;;;;;;;;;;;29.31;46.44;97307.94;4189233;28;5719;-68
2023/08/20 06:46:45;;;;;;;;;;;;;;;29.32;46.39;97308.72;4194508;28;5679;-68
2023/08/20 06:48:49;;;;;;;;;;;;;;;29.32;46.66;97309.53;4193126;28;5917;-68
2023/08/20 06:50:52;;;;;;;;;;;;;;;29.31;46.40;97307.13;4196743;28;5788;-68
2023/08/20 06:52:55;;;;;;;;;;;;;;;29.30;46.61;97306.31;4191968;28;7756;-68
2023/08/20 06:54:58;;;;;;;;;;;;;;;29.30;46.73;97314.47;4189758;28;5718;-68
2023/08/20 06:57:02;;;;;;;;;;;;;;;29.31;46.72;97309.84;4193067;28;5790;-67
2023/08/20 06:59:05;;;;;;;;;;;;;;;29.32;46.57;97317.72;4187723;28;5757;-68
2023/08/20 07:01:07;;;;;;;;;;;;;;;29.32;46.54;97314.19;4192381;28;5789;-68
2023/08/20 07:03:10;;;;;;;;;;;;;;;29.29;46.69;97316.41;4192331;28;5800;-68
2023/08/20 07:05:14;;;;;;;;;;;;;;;29.29;46.70;97315.59;4194023;28;8328;-68
2023/08/20 07:07:17;;;;;;;;;;;;;;;29.28;46.76;97314.78;4194477;28;5703;-67
2023/08/20 07:09:20;;;;;;;;;;;;;;;29.28;46.64;97311.25;4196710;28;6440;-67
2023/08/20 07:11:23;;;;;;;;;;;;;;;29.29;46.74;97310.94;4194384;28;5087;-67
2023/08/20 07:13:27;;;;;;;;;;;;;;;29.31;46.77;97315.28;4192709;28;5771;-66
2023/08/20 07:15:30;;;;;;;;;;;;;;;29.32;46.37;97314.19;4190828;28;5979;-66
2023/08/20 07:17:33;;;;;;;;;;;;;;;29.29;46.29;97315.59;4197668;28;5868;-67
2023/08/20 07:19:37;;;;;;;;;;;;;;;29.28;46.16;97322.16;4200257;28;5686;-66
2023/08/20 07:21:40;;;;;;;;;;;;;;;29.29;45.96;97315.59;4195735;28;5850;-67
2023/08/20 07:23:43;;;;;;;;;;;;;;;29.29;45.73;97321.03;4197066;28;5798;-67
2023/08/20 07:25:46;;;;;;;;;;;;;;;29.28;45.65;97319.44;4192620;28;5723;-67
2023/08/20 07:27:50;;;;;;;;;;;;;;;29.24;45.26;97308.34;4191070;28;5760;-67
2023/08/20 07:29:55;;;;;;;;;;;;;;;29.25;45.39;97315.41;4197522;28;5122;-66
2023/08/20 07:31:57;;;;;;;;;;;;;;;29.27;45.31;97317.81;4195281;28;5853;-66
2023/08/20 07:34:04;;;;;;;;;;;;;;;29.28;45.25;97319.44;4200161;28;6513;-66
2023/08/20 07:36:08;;;;;;;;;;;;;;;29.28;45.05;97320.22;4196889;28;5769;-67
2023/08/20 07:38:11;;;;;;;;;;;;;;;29.29;45.18;97321.03;4193923;28;5790;-66
2023/08/20 07:40:14;;;;;;;;;;;;;;;29.27;45.11;97324.06;4196883;28;5852;-66
2023/08/20 07:42:18;;;;;;;;;;;;;;;29.27;45.06;97329.50;4193401;28;5693;-66
2023/08/20 07:44:21;;;;;;;;;;;;;;;29.27;44.95;97326.00;4195648;28;5781;-66
2023/08/20 07:46:25;;;;;;;;;;;;;;;29.27;45.11;97326.00;4198756;28;5050;-67
2023/08/20 07:48:27;;;;;;;;;;;;;;;29.26;45.25;97325.19;4193762;28;5878;-67
2023/08/20 07:50:30;;;;;;;;;;;;;;;29.28;45.28;97330.31;4199145;28;5900;-67
2023/08/20 07:52:33;;;;;;;;;;;;;;;29.26;45.09;97327.09;4198898;28;5674;-67
2023/08/20 07:54:36;;;;;;;;;;;;;;;29.25;45.19;97330.94;4198933;28;5689;-67
2023/08/20 07:56:39;;;;;;;;;;;;;;;29.26;45.18;97332.53;4193911;28;5699;-67
2023/08/20 07:58:42;;;;;;;;;;;;;;;29.26;45.09;97338.78;4194250;28;5823;-66
2023/08/20 08:00:45;;;;;;;;;;;;;;;29.27;45.22;97339.59;4195420;28;5642;-66
2023/08/20 08:02:49;;;;;;;;;;;;;;;29.28;45.09;97333.03;4195891;28;5785;-67
2023/08/20 08:04:52;;;;;;;;;;;;;;;29.26;44.84;97330.63;4200357;28;5741;-67
2023/08/20 08:06:55;;;;;;;;;;;;;;;29.26;44.98;97329.81;4197658;28;5635;-63
2023/08/20 08:09:15;;;;;;;;;;;;;;;29.24;44.63;97329.31;4200703;28;5904;-64
2023/08/20 08:11:18;;;;;;;;;;;;;;;29.20;44.36;97333.72;4196598;28;5690;-64
2023/08/20 08:13:23;;;;;;;;;;;;;;;29.17;44.15;97339.78;4191608;28;5757;-66
2023/08/20 08:15:26;;;;;;;;;;;;;;;29.14;43.99;97337.66;4186760;28;5796;-68
2023/08/20 08:17:29;;;;;;;;;;;;;;;29.13;44.06;97338.78;4195602;28;5730;-68
2023/08/20 08:19:33;;;;;;;;;;;;;;;29.13;44.01;97349.66;4196067;28;5920;-67
2023/08/20 08:21:36;;;;;;;;;;;;;;;29.14;44.03;97334.94;4198183;28;5683;-64
2023/08/20 08:23:38;;;;;;;;;;;;;;;29.14;43.81;97345.84;4191086;28;5931;-74
2023/08/20 08:26:01;;;;;;;;;;;;;;;29.14;44.00;97352.09;4186450;28;5868;-67
2023/08/20 08:28:05;;;;;;;;;;;;;;;29.17;43.53;97345.22;4194508;28;5757;-69
2023/08/20 08:30:29;;;;;;;;;;;;;;;29.20;43.58;97339.97;4183928;28;6621;-71
2023/08/20 08:32:32;;;;;;;;;;;;;;;29.22;43.16;97345.97;4189652;28;5769;-71
2023/08/20 08:34:36;;;;;;;;;;;;;;;29.24;43.17;97348.38;4191908;28;5776;-70
2023/08/20 08:36:40;;;;;;;;;;;;;;;29.26;42.92;97348.88;4191828;28;5986;-71
2023/08/20 08:38:43;;;;;;;;;;;;;;;29.27;42.84;97334.97;4191181;28;5720;-71
2023/08/20 08:40:48;;;;;;;;;;;;;;;29.29;42.87;97346.34;4192714;28;5810;-70
2023/08/20 08:42:51;;;;;;;;;;;;;;;29.30;42.47;97339.00;4194686;28;5684;-70
2023/08/20 08:44:55;;;;;;;;;;;;;;;29.31;42.03;97339.78;4192272;28;5771;-69
2023/08/20 08:46:58;;;;;;;;;;;;;;;29.29;41.98;97337.38;4195299;28;5924;-71
2023/08/20 08:49:01;;;;;;;;;;;;;;;29.31;41.86;97340.59;4192455;28;5895;-70
2023/08/20 08:51:05;;;;;;;;;;;;;;;29.34;41.79;97350.09;4195408;28;5788;-70
2023/08/20 08:53:09;;;;;;;;;;;;;;;29.34;41.33;97337.31;4194543;28;5772;-66
2023/08/20 08:55:11;;;;;;;;;;;;;;;29.34;41.32;97345.47;4194246;28;5967;-70
2023/08/20 08:57:15;;;;;;;;;;;;;;;29.35;41.21;97341.63;4190975;28;5701;-70
2023/08/20 08:59:18;;;;;;;;;;;;;;;29.35;41.21;97336.19;4188531;28;5723;-68
2023/08/20 09:01:21;;;;;;;;;;;;;;;29.37;41.18;97336.69;4198937;28;5664;-68
2023/08/20 09:03:24;;;;;;;;;;;;;;;29.40;41.40;97338.81;4193102;28;5753;-68
2023/08/20 09:05:27;;;;;;;;;;;;;;;29.44;40.80;97334.34;4194112;28;5831;-69
2023/08/20 09:07:31;;;;;;;;;;;;;;;29.43;41.05;97332.75;4195749;28;6634;-71
2023/08/20 09:09:36;;;;;;;;;;;;;;;29.47;41.29;97324.78;4186067;28;5654;-71
2023/08/20 09:11:39;;;;;;;;;;;;;;;29.50;40.93;97327.75;4194587;28;5825;-67
2023/08/20 09:13:44;;;;;;;;;;;;;;;29.54;40.86;97327.94;4194852;28;5701;-66
2023/08/20 09:15:52;;;;;;;;;;;;;;;29.58;40.98;97328.16;4192482;28;5479;-73
2023/08/20 09:17:55;;;;;;;;;;;;;;;29.59;40.87;97330.59;4190546;28;5884;-64
2023/08/20 09:19:58;;;;;;;;;;;;;;;29.60;40.92;97328.66;4196893;28;5696;-63
2023/08/20 09:22:02;;;;;;;;;;;;;;;29.63;41.04;97326.13;4198152;28;5721;-64
2023/08/20 09:24:07;;;;;;;;;;;;;;;29.64;40.88;97333.19;4200395;28;5669;-64
2023/08/20 09:26:10;;;;;;;;;;;;;;;29.65;40.71;97323.09;4200567;28;5689;-64
2023/08/20 09:28:13;;;;;;;;;;;;;;;29.67;40.88;97326.31;4196433;28;5792;-64
2023/08/20 09:30:20;;;;;;;;;;;;;;;29.67;40.96;97335.31;4200360;28;6058;-64
2023/08/20 09:32:25;;;;;;;;;;;;;;;29.70;40.83;97331.19;4196719;28;5749;-64
2023/08/20 09:34:37;;;;;;;;;;;;;;;29.70;41.11;97332.00;4200984;28;5722;-64
2023/08/20 09:36:40;;;;;;;;;;;;;;;29.71;41.24;97335.53;4202773;28;5705;-65
2023/08/20 09:38:43;;;;;;;;;;;;;;;29.73;41.49;97338.75;4202857;28;5701;-65
2023/08/20 09:40:49;;;;;;;;;;;;;;;29.74;41.40;97326.72;4198006;28;5893;-65
2023/08/20 09:42:52;;;;;;;;;;;;;;;29.75;41.36;97333.78;4201024;28;5685;-65
2023/08/20 09:44:56;;;;;;;;;;;;;;;29.77;41.81;97334.28;4201746;28;5806;-65
2023/08/20 09:46:58;;;;;;;;;;;;;;;29.79;41.95;97327.44;4197969;28;5801;-65
2023/08/20 09:49:03;;;;;;;;;;;;;;;29.80;41.95;97331.78;4197615;28;5729;-64
2023/08/20 09:51:11;;;;;;;;;;;;;;;29.82;42.05;97324.09;4201545;28;5797;-64
2023/08/20 09:53:23;;;;;;;;;;;;;;;29.81;41.93;97322.50;4187023;28;6437;-63
2023/08/20 09:55:31;;;;;;;;;;;;;;;29.82;41.82;97323.31;4201647;28;5697;-64
2023/08/20 09:57:37;;;;;;;;;;;;;;;29.78;41.64;97320.34;4198595;28;5845;-63
2023/08/20 09:59:42;;;;;;;;;;;;;;;29.78;41.48;97312.19;4198718;28;5776;-64
2023/08/20 10:01:47;;;;;;;;;;;;;;;29.80;40.91;97320.09;4197588;28;5694;-65
2023/08/20 10:03:50;;;;;;;;;;;;;;;29.80;41.05;97318.16;4201124;28;5666;-63
2023/08/20 10:05:56;;;;;;;;;;;;;;;29.81;40.81;97316.25;4201321;28;5684;-64
2023/08/20 10:08:01;;;;;;;;;;;;;;;29.85;40.76;97317.22;4200412;28;5689;-64
2023/08/20 10:10:06;;;;;;;;;;;;;;;29.87;40.61;97320.47;4198375;28;5726;-64
2023/08/20 10:12:09;;;;;;;;;;;;;;;29.89;40.50;97323.69;4196635;28;5705;-64
2023/08/20 10:14:14;;;;;;;;;;;;;;;29.90;40.31;97314.41;4194488;28;6157;-64
2023/08/20 10:16:20;;;;;;;;;;;;;;;29.93;40.34;97313.81;4200892;28;5842;-64
2023/08/20 10:18:23;;;;;;;;;;;;;;;29.94;39.82;97320.06;4200294;28;5686;-64
2023/08/20 10:20:30;;;;;;;;;;;;;;;29.95;39.80;97317.03;4198074;28;5686;-64
2023/08/20 10:22:37;;;;;;;;;;;;;;;29.98;39.73;97316.41;4188096;28;5691;-64
2023/08/20 10:24:42;;;;;;;;;;;;;;;30.01;39.44;97310.34;4201000;28;5808;-63
2023/08/20 10:26:46;;;;;;;;;;;;;;;30.02;39.36;97311.97;4196158;28;5699;-64
2023/08/20 10:28:49;;;;;;;;;;;;;;;30.06;39.31;97312.19;4197093;28;5166;-64
2023/08/20 10:31:08;;;;;;;;;;;;;;;30.08;39.02;97313.50;4198660;28;5694;-64
2023/08/20 10:33:14;;;;;;;;;;;;;;;30.10;39.06;97313.97;4197896;28;6612;-64
2023/08/20 10:35:19;;;;;;;;;;;;;;;30.14;39.13;97308.75;4201044;28;5817;-65
2023/08/20 10:37:29;;;;;;;;;;;;;;;30.14;39.28;97309.56;4200047;28;5843;-64
2023/08/20 10:39:32;;;;;;;;;;;;;;;30.15;39.36;97313.09;4199826;28;5805;-65
2023/08/20 10:41:34;;;;;;;;;;;;;;;30.17;39.24;97301.88;4198473;28;5677;-65
2023/08/20 10:43:39;;;;;;;;;;;;;;;30.16;39.22;97311.97;4200120;28;5690;-65
2023/08/20 10:45:43;;;;;;;;;;;;;;;30.18;39.43;97314.38;4200996;28;6075;-65
2023/08/20 10:47:49;;;;;;;;;;;;;;;30.22;39.39;97307.19;4200035;28;5893;-65
2023/08/20 10:49:53;;;;;;;;;;;;;;;30.23;39.26;97297.88;4200744;28;5689;-65
2023/08/20 10:51:57;;;;;;;;;;;;;;;30.25;39.54;97292.97;4196236;28;5937;-65
2023/08/20 10:54:05;;;;;;;;;;;;;;;30.27;39.56;97302.44;4197495;28;5818;-64
2023/08/20 10:56:11;;;;;;;;;;;;;;;30.30;39.64;97298.28;4198288;28;5805;-64